sensor_id;sensor_type;location;lat;lon;timestamp;temperature;humidity
5806;DHT22;2929;50.810;8.342;2023-03-23T00:02:23;10.10;99.90
5806;DHT22;2929;50.810;8.342;2023-03-23T00:04:52;10.00;99.90
5806;DHT22;2929;50.810;8.342;2023-03-23T00:07:20;9.90;99.90
5806;DHT22;2929;50.810;8.342;2023-03-23T00:09:48;9.70;99.90
5806;DHT22;2929;50.810;8.342;2023-03-23T00:12:19;9.70;99.90
5806;DHT22;2929;50.810;8.342;2023-03-23T00:14:47;9.60;99.90
5806;DHT22;2929;50.810;8.342;2023-03-23T00:17:14;9.60;99.90
5806;DHT22;2929;50.810;8.342;2023-03-23T00:19:41;9.60;99.90
5806;DHT22;2929;50.810;8.342;2023-03-23T00:22:15;9.70;99.90
5806;DHT22;2929;50.810;8.342;2023-03-23T00:24:45;9.80;99.90
5806;DHT22;2929;50.810;8.342;2023-03-23T00:27:12;9.90;99.90
5806;DHT22;2929;50.810;8.342;2023-03-23T00:29:41;9.90;99.90
5806;DHT22;2929;50.810;8.342;2023-03-23T00:32:12;9.90;99.90
5806;DHT22;2929;50.810;8.342;2023-03-23T00:34:40;9.90;99.90
5806;DHT22;2929;50.810;8.342;2023-03-23T00:37:10;10.00;99.90
5806;DHT22;2929;50.810;8.342;2023-03-23T00:39:39;10.10;99.90
5806;DHT22;2929;50.810;8.342;2023-03-23T00:42:13;10.10;99.90
5806;DHT22;2929;50.810;8.342;2023-03-23T00:44:40;10.20;99.90
5806;DHT22;2929;50.810;8.342;2023-03-23T00:47:07;10.30;99.90
5806;DHT22;2929;50.810;8.342;2023-03-23T00:49:37;10.30;99.90
5806;DHT22;2929;50.810;8.342;2023-03-23T00:52:06;10.30;99.90
5806;DHT22;2929;50.810;8.342;2023-03-23T00:54:33;10.20;99.90
5806;DHT22;2929;50.810;8.342;2023-03-23T00:57:02;10.20;99.90
5806;DHT22;2929;50.810;8.342;2023-03-23T00:59:29;10.20;99.90
5806;DHT22;2929;50.810;8.342;2023-03-23T01:01:56;10.20;99.90
5806;DHT22;2929;50.810;8.342;2023-03-23T01:04:23;10.20;99.90
5806;DHT22;2929;50.810;8.342;2023-03-23T01:06:51;10.20;99.90
5806;DHT22;2929;50.810;8.342;2023-03-23T01:09:19;10.10;99.90
5806;DHT22;2929;50.810;8.342;2023-03-23T01:11:48;10.10;99.90
5806;DHT22;2929;50.810;8.342;2023-03-23T01:14:18;10.00;99.90
5806;DHT22;2929;50.810;8.342;2023-03-23T01:16:49;9.90;99.90
5806;DHT22;2929;50.810;8.342;2023-03-23T01:19:16;10.00;99.90
5806;DHT22;2929;50.810;8.342;2023-03-23T01:21:44;10.00;99.90
5806;DHT22;2929;50.810;8.342;2023-03-23T01:24:11;10.00;99.90
5806;DHT22;2929;50.810;8.342;2023-03-23T01:26:38;10.10;99.90
5806;DHT22;2929;50.810;8.342;2023-03-23T01:29:05;10.10;99.90
5806;DHT22;2929;50.810;8.342;2023-03-23T01:31:35;10.10;99.90
5806;DHT22;2929;50.810;8.342;2023-03-23T01:34:04;10.00;99.90
5806;DHT22;2929;50.810;8.342;2023-03-23T01:36:32;10.00;99.90
5806;DHT22;2929;50.810;8.342;2023-03-23T01:39:02;10.00;99.90
5806;DHT22;2929;50.810;8.342;2023-03-23T01:41:31;10.00;99.90
5806;DHT22;2929;50.810;8.342;2023-03-23T01:44:03;10.00;99.90
5806;DHT22;2929;50.810;8.342;2023-03-23T01:46:52;10.00;99.90
5806;DHT22;2929;50.810;8.342;2023-03-23T01:49:24;10.10;99.90
5806;DHT22;2929;50.810;8.342;2023-03-23T01:51:54;10.10;99.90
5806;DHT22;2929;50.810;8.342;2023-03-23T01:54:24;10.10;99.90
5806;DHT22;2929;50.810;8.342;2023-03-23T01:56:56;10.10;99.90
5806;DHT22;2929;50.810;8.342;2023-03-23T01:59:26;10.10;99.90
5806;DHT22;2929;50.810;8.342;2023-03-23T02:02:14;10.00;99.90
5806;DHT22;2929;50.810;8.342;2023-03-23T02:04:42;10.00;99.90
5806;DHT22;2929;50.810;8.342;2023-03-23T02:07:12;9.90;99.90
5806;DHT22;2929;50.810;8.342;2023-03-23T02:09:40;9.90;99.90
5806;DHT22;2929;50.810;8.342;2023-03-23T02:12:07;9.90;99.90
5806;DHT22;2929;50.810;8.342;2023-03-23T02:14:36;9.90;99.90
5806;DHT22;2929;50.810;8.342;2023-03-23T02:17:06;10.00;99.90
5806;DHT22;2929;50.810;8.342;2023-03-23T02:19:55;9.90;99.90
5806;DHT22;2929;50.810;8.342;2023-03-23T02:22:41;9.90;99.90
5806;DHT22;2929;50.810;8.342;2023-03-23T02:25:33;9.90;99.90
5806;DHT22;2929;50.810;8.342;2023-03-23T02:31:17;9.70;99.90
5806;DHT22;2929;50.810;8.342;2023-03-23T02:33:51;9.70;99.90
5806;DHT22;2929;50.810;8.342;2023-03-23T02:36:25;9.60;99.90
5806;DHT22;2929;50.810;8.342;2023-03-23T02:38:58;9.60;99.90
5806;DHT22;2929;50.810;8.342;2023-03-23T02:41:30;9.50;99.90
5806;DHT22;2929;50.810;8.342;2023-03-23T02:43:57;9.40;99.90
5806;DHT22;2929;50.810;8.342;2023-03-23T02:46:26;9.40;99.90
5806;DHT22;2929;50.810;8.342;2023-03-23T02:48:57;9.30;99.90
5806;DHT22;2929;50.810;8.342;2023-03-23T02:51:26;9.20;99.90
5806;DHT22;2929;50.810;8.342;2023-03-23T02:53:55;9.20;99.90
5806;DHT22;2929;50.810;8.342;2023-03-23T02:56:24;9.20;99.90
5806;DHT22;2929;50.810;8.342;2023-03-23T02:58:51;9.20;99.90
5806;DHT22;2929;50.810;8.342;2023-03-23T03:01:55;9.20;99.90
5806;DHT22;2929;50.810;8.342;2023-03-23T03:04:27;9.10;99.90
5806;DHT22;2929;50.810;8.342;2023-03-23T03:07:07;9.10;99.90
5806;DHT22;2929;50.810;8.342;2023-03-23T03:09:44;9.00;99.90
5806;DHT22;2929;50.810;8.342;2023-03-23T03:12:17;9.00;99.90
5806;DHT22;2929;50.810;8.342;2023-03-23T03:14:53;9.00;99.90
5806;DHT22;2929;50.810;8.342;2023-03-23T03:17:25;9.00;99.90
5806;DHT22;2929;50.810;8.342;2023-03-23T03:19:56;9.00;99.90
5806;DHT22;2929;50.810;8.342;2023-03-23T03:22:26;9.00;99.90
5806;DHT22;2929;50.810;8.342;2023-03-23T03:24:57;9.00;99.90
5806;DHT22;2929;50.810;8.342;2023-03-23T03:27:25;9.00;99.90
5806;DHT22;2929;50.810;8.342;2023-03-23T03:30:19;9.00;99.90
5806;DHT22;2929;50.810;8.342;2023-03-23T03:32:49;8.90;99.90
5806;DHT22;2929;50.810;8.342;2023-03-23T03:35:18;8.90;99.90
5806;DHT22;2929;50.810;8.342;2023-03-23T03:37:46;8.90;99.90
5806;DHT22;2929;50.810;8.342;2023-03-23T03:40:15;8.90;99.90
5806;DHT22;2929;50.810;8.342;2023-03-23T03:42:44;8.90;99.90
5806;DHT22;2929;50.810;8.342;2023-03-23T03:45:15;8.90;99.90
5806;DHT22;2929;50.810;8.342;2023-03-23T03:47:42;8.80;99.90
5806;DHT22;2929;50.810;8.342;2023-03-23T03:50:10;8.80;99.90
5806;DHT22;2929;50.810;8.342;2023-03-23T03:52:39;8.80;99.90
5806;DHT22;2929;50.810;8.342;2023-03-23T03:55:08;8.80;99.90
5806;DHT22;2929;50.810;8.342;2023-03-23T03:57:39;8.90;99.90
5806;DHT22;2929;50.810;8.342;2023-03-23T04:00:24;8.90;99.90
5806;DHT22;2929;50.810;8.342;2023-03-23T04:02:51;8.80;99.90
5806;DHT22;2929;50.810;8.342;2023-03-23T04:05:31;8.80;99.90
5806;DHT22;2929;50.810;8.342;2023-03-23T04:08:00;8.80;99.90
5806;DHT22;2929;50.810;8.342;2023-03-23T04:10:31;8.80;99.90
5806;DHT22;2929;50.810;8.342;2023-03-23T04:12:59;8.80;99.90
5806;DHT22;2929;50.810;8.342;2023-03-23T04:15:46;8.80;99.90
5806;DHT22;2929;50.810;8.342;2023-03-23T04:18:13;8.70;99.90
5806;DHT22;2929;50.810;8.342;2023-03-23T04:20:45;8.70;99.90
5806;DHT22;2929;50.810;8.342;2023-03-23T04:23:18;8.70;99.90
5806;DHT22;2929;50.810;8.342;2023-03-23T04:25:48;8.70;99.90
5806;DHT22;2929;50.810;8.342;2023-03-23T04:28:16;8.70;99.90
5806;DHT22;2929;50.810;8.342;2023-03-23T04:30:58;8.70;99.90
5806;DHT22;2929;50.810;8.342;2023-03-23T04:33:27;8.70;99.90
5806;DHT22;2929;50.810;8.342;2023-03-23T04:35:58;8.60;99.90
5806;DHT22;2929;50.810;8.342;2023-03-23T04:38:38;8.60;99.90
5806;DHT22;2929;50.810;8.342;2023-03-23T04:41:12;8.70;99.90
5806;DHT22;2929;50.810;8.342;2023-03-23T04:43:51;8.70;99.90
5806;DHT22;2929;50.810;8.342;2023-03-23T04:46:29;8.70;99.90
5806;DHT22;2929;50.810;8.342;2023-03-23T04:49:01;8.70;99.90
5806;DHT22;2929;50.810;8.342;2023-03-23T04:51:35;8.70;99.90
5806;DHT22;2929;50.810;8.342;2023-03-23T04:54:24;8.70;99.90
5806;DHT22;2929;50.810;8.342;2023-03-23T04:56:55;8.70;99.90
5806;DHT22;2929;50.810;8.342;2023-03-23T04:59:24;8.70;99.90
5806;DHT22;2929;50.810;8.342;2023-03-23T05:02:06;8.70;99.90
5806;DHT22;2929;50.810;8.342;2023-03-23T05:04:34;8.70;99.90
5806;DHT22;2929;50.810;8.342;2023-03-23T05:07:08;8.70;99.90
5806;DHT22;2929;50.810;8.342;2023-03-23T05:09:47;8.80;99.90
5806;DHT22;2929;50.810;8.342;2023-03-23T05:12:16;8.80;99.90
5806;DHT22;2929;50.810;8.342;2023-03-23T05:14:52;8.80;99.90
5806;DHT22;2929;50.810;8.342;2023-03-23T05:17:21;8.80;99.90
5806;DHT22;2929;50.810;8.342;2023-03-23T05:19:50;8.80;99.90
5806;DHT22;2929;50.810;8.342;2023-03-23T05:22:41;8.80;99.90
5806;DHT22;2929;50.810;8.342;2023-03-23T05:25:12;8.80;99.90
5806;DHT22;2929;50.810;8.342;2023-03-23T05:27:43;8.80;99.90
5806;DHT22;2929;50.810;8.342;2023-03-23T05:30:37;8.90;99.90
5806;DHT22;2929;50.810;8.342;2023-03-23T05:33:05;8.80;99.90
5806;DHT22;2929;50.810;8.342;2023-03-23T05:35:48;8.90;99.90
5806;DHT22;2929;50.810;8.342;2023-03-23T05:38:20;8.80;99.90
5806;DHT22;2929;50.810;8.342;2023-03-23T05:40:49;8.80;99.90
5806;DHT22;2929;50.810;8.342;2023-03-23T05:43:24;8.90;99.90
5806;DHT22;2929;50.810;8.342;2023-03-23T05:46:27;8.90;99.90
5806;DHT22;2929;50.810;8.342;2023-03-23T05:48:58;8.90;99.90
5806;DHT22;2929;50.810;8.342;2023-03-23T05:51:31;8.80;99.90
5806;DHT22;2929;50.810;8.342;2023-03-23T05:53:59;8.80;99.90
5806;DHT22;2929;50.810;8.342;2023-03-23T05:56:28;8.90;99.90
5806;DHT22;2929;50.810;8.342;2023-03-23T05:59:28;8.90;99.90
5806;DHT22;2929;50.810;8.342;2023-03-23T06:01:57;8.90;99.90
5806;DHT22;2929;50.810;8.342;2023-03-23T06:04:25;8.80;99.90
5806;DHT22;2929;50.810;8.342;2023-03-23T06:07:14;8.90;99.90
5806;DHT22;2929;50.810;8.342;2023-03-23T06:09:50;8.90;99.90
5806;DHT22;2929;50.810;8.342;2023-03-23T06:12:37;8.90;99.90
5806;DHT22;2929;50.810;8.342;2023-03-23T06:15:25;9.00;99.90
5806;DHT22;2929;50.810;8.342;2023-03-23T06:17:58;9.10;99.90
5806;DHT22;2929;50.810;8.342;2023-03-23T06:20:30;9.10;99.90
5806;DHT22;2929;50.810;8.342;2023-03-23T06:23:00;9.20;99.90
5806;DHT22;2929;50.810;8.342;2023-03-23T06:25:30;9.20;99.90
5806;DHT22;2929;50.810;8.342;2023-03-23T06:28:00;9.20;99.90
5806;DHT22;2929;50.810;8.342;2023-03-23T06:30:27;9.20;99.90
5806;DHT22;2929;50.810;8.342;2023-03-23T06:32:55;9.20;99.90
5806;DHT22;2929;50.810;8.342;2023-03-23T06:35:42;9.20;99.90
5806;DHT22;2929;50.810;8.342;2023-03-23T06:38:20;9.20;99.90
5806;DHT22;2929;50.810;8.342;2023-03-23T06:40:53;9.30;99.90
5806;DHT22;2929;50.810;8.342;2023-03-23T06:43:25;9.40;99.90
5806;DHT22;2929;50.810;8.342;2023-03-23T06:46:21;9.30;99.90
5806;DHT22;2929;50.810;8.342;2023-03-23T06:48:51;9.40;99.90
5806;DHT22;2929;50.810;8.342;2023-03-23T06:51:25;9.50;99.90
5806;DHT22;2929;50.810;8.342;2023-03-23T06:53:55;9.50;99.90
5806;DHT22;2929;50.810;8.342;2023-03-23T06:56:24;9.50;99.90
5806;DHT22;2929;50.810;8.342;2023-03-23T06:58:53;9.50;99.90
5806;DHT22;2929;50.810;8.342;2023-03-23T07:01:22;9.50;99.90
5806;DHT22;2929;50.810;8.342;2023-03-23T07:03:55;9.50;99.90
5806;DHT22;2929;50.810;8.342;2023-03-23T07:06:34;9.50;99.90
5806;DHT22;2929;50.810;8.342;2023-03-23T07:09:01;9.50;99.90
5806;DHT22;2929;50.810;8.342;2023-03-23T07:11:32;9.60;99.90
5806;DHT22;2929;50.810;8.342;2023-03-23T07:14:06;9.60;99.90
5806;DHT22;2929;50.810;8.342;2023-03-23T07:16:34;9.60;99.90
5806;DHT22;2929;50.810;8.342;2023-03-23T07:19:01;9.60;99.90
5806;DHT22;2929;50.810;8.342;2023-03-23T07:21:28;9.70;99.90
5806;DHT22;2929;50.810;8.342;2023-03-23T07:23:56;9.80;99.90
5806;DHT22;2929;50.810;8.342;2023-03-23T07:26:37;9.80;99.90
5806;DHT22;2929;50.810;8.342;2023-03-23T07:29:05;9.90;99.90
5806;DHT22;2929;50.810;8.342;2023-03-23T07:31:38;9.90;99.90
5806;DHT22;2929;50.810;8.342;2023-03-23T07:34:05;10.00;99.90
5806;DHT22;2929;50.810;8.342;2023-03-23T07:36:51;10.00;99.90
5806;DHT22;2929;50.810;8.342;2023-03-23T07:39:19;10.10;99.90
5806;DHT22;2929;50.810;8.342;2023-03-23T07:41:47;10.10;99.90
5806;DHT22;2929;50.810;8.342;2023-03-23T07:44:22;10.10;99.90
5806;DHT22;2929;50.810;8.342;2023-03-23T07:46:50;10.10;99.90
5806;DHT22;2929;50.810;8.342;2023-03-23T07:49:27;10.10;99.90
5806;DHT22;2929;50.810;8.342;2023-03-23T07:52:04;10.10;99.90
5806;DHT22;2929;50.810;8.342;2023-03-23T07:54:31;10.10;99.90
5806;DHT22;2929;50.810;8.342;2023-03-23T07:57:05;10.20;99.90
5806;DHT22;2929;50.810;8.342;2023-03-23T07:59:39;10.20;99.90
5806;DHT22;2929;50.810;8.342;2023-03-23T08:02:08;10.30;99.90
5806;DHT22;2929;50.810;8.342;2023-03-23T08:04:55;10.30;99.90
5806;DHT22;2929;50.810;8.342;2023-03-23T08:07:31;10.40;99.90
5806;DHT22;2929;50.810;8.342;2023-03-23T08:10:07;10.40;99.90
5806;DHT22;2929;50.810;8.342;2023-03-23T08:12:56;10.40;99.90
5806;DHT22;2929;50.810;8.342;2023-03-23T08:15:52;10.40;99.90
5806;DHT22;2929;50.810;8.342;2023-03-23T08:18:48;10.50;99.90
5806;DHT22;2929;50.810;8.342;2023-03-23T08:21:34;10.50;99.90
5806;DHT22;2929;50.810;8.342;2023-03-23T08:24:34;10.60;99.90
5806;DHT22;2929;50.810;8.342;2023-03-23T08:27:22;10.70;99.90
5806;DHT22;2929;50.810;8.342;2023-03-23T08:30:07;10.80;99.90
5806;DHT22;2929;50.810;8.342;2023-03-23T08:33:11;10.80;99.90
5806;DHT22;2929;50.810;8.342;2023-03-23T08:36:00;10.80;99.90
5806;DHT22;2929;50.810;8.342;2023-03-23T08:38:47;10.80;99.90
5806;DHT22;2929;50.810;8.342;2023-03-23T08:41:32;10.80;99.90
5806;DHT22;2929;50.810;8.342;2023-03-23T08:44:11;10.80;99.90
5806;DHT22;2929;50.810;8.342;2023-03-23T08:47:11;10.90;99.90
5806;DHT22;2929;50.810;8.342;2023-03-23T08:49:56;10.90;99.90
5806;DHT22;2929;50.810;8.342;2023-03-23T08:52:48;10.90;99.90
5806;DHT22;2929;50.810;8.342;2023-03-23T08:55:48;11.00;99.90
5806;DHT22;2929;50.810;8.342;2023-03-23T08:58:25;11.00;99.90
5806;DHT22;2929;50.810;8.342;2023-03-23T09:01:11;11.00;99.90
5806;DHT22;2929;50.810;8.342;2023-03-23T09:03:59;11.00;99.90
5806;DHT22;2929;50.810;8.342;2023-03-23T09:06:30;11.10;99.90
5806;DHT22;2929;50.810;8.342;2023-03-23T09:08:59;11.20;99.90
5806;DHT22;2929;50.810;8.342;2023-03-23T09:11:26;11.20;99.90
5806;DHT22;2929;50.810;8.342;2023-03-23T09:13:53;11.10;99.90
5806;DHT22;2929;50.810;8.342;2023-03-23T09:16:20;11.10;99.90
5806;DHT22;2929;50.810;8.342;2023-03-23T09:18:47;11.20;99.90
5806;DHT22;2929;50.810;8.342;2023-03-23T09:21:15;11.20;99.90
5806;DHT22;2929;50.810;8.342;2023-03-23T09:23:44;11.10;99.90
5806;DHT22;2929;50.810;8.342;2023-03-23T09:26:12;11.10;99.90
5806;DHT22;2929;50.810;8.342;2023-03-23T09:28:39;11.10;99.90
5806;DHT22;2929;50.810;8.342;2023-03-23T09:31:06;11.00;99.90
5806;DHT22;2929;50.810;8.342;2023-03-23T09:33:33;11.00;99.90
5806;DHT22;2929;50.810;8.342;2023-03-23T09:36:00;11.00;99.90
5806;DHT22;2929;50.810;8.342;2023-03-23T09:38:30;11.00;99.90
5806;DHT22;2929;50.810;8.342;2023-03-23T09:41:08;11.00;99.90
5806;DHT22;2929;50.810;8.342;2023-03-23T09:43:50;10.90;99.90
5806;DHT22;2929;50.810;8.342;2023-03-23T09:46:38;10.70;99.90
5806;DHT22;2929;50.810;8.342;2023-03-23T09:49:10;10.70;99.90
5806;DHT22;2929;50.810;8.342;2023-03-23T09:51:42;10.60;99.90
5806;DHT22;2929;50.810;8.342;2023-03-23T09:54:16;10.60;99.90
5806;DHT22;2929;50.810;8.342;2023-03-23T09:56:46;10.60;99.90
5806;DHT22;2929;50.810;8.342;2023-03-23T09:59:19;10.60;99.90
5806;DHT22;2929;50.810;8.342;2023-03-23T10:01:48;10.60;99.90
5806;DHT22;2929;50.810;8.342;2023-03-23T10:04:25;10.60;99.90
5806;DHT22;2929;50.810;8.342;2023-03-23T10:06:58;10.70;99.90
5806;DHT22;2929;50.810;8.342;2023-03-23T10:09:27;10.80;99.90
5806;DHT22;2929;50.810;8.342;2023-03-23T10:12:10;10.90;99.90
5806;DHT22;2929;50.810;8.342;2023-03-23T10:15:00;10.90;99.90
5806;DHT22;2929;50.810;8.342;2023-03-23T10:17:34;11.00;99.90
5806;DHT22;2929;50.810;8.342;2023-03-23T10:20:16;10.90;99.90
5806;DHT22;2929;50.810;8.342;2023-03-23T10:22:49;11.00;99.90
5806;DHT22;2929;50.810;8.342;2023-03-23T10:25:21;10.90;99.90
5806;DHT22;2929;50.810;8.342;2023-03-23T10:27:56;11.00;99.90
5806;DHT22;2929;50.810;8.342;2023-03-23T10:30:29;10.90;99.90
5806;DHT22;2929;50.810;8.342;2023-03-23T10:33:02;10.90;99.90
5806;DHT22;2929;50.810;8.342;2023-03-23T10:35:33;11.00;99.90
5806;DHT22;2929;50.810;8.342;2023-03-23T10:38:05;11.10;99.90
5806;DHT22;2929;50.810;8.342;2023-03-23T10:40:43;11.10;99.90
5806;DHT22;2929;50.810;8.342;2023-03-23T10:43:14;11.10;99.90
5806;DHT22;2929;50.810;8.342;2023-03-23T10:45:44;11.20;99.90
5806;DHT22;2929;50.810;8.342;2023-03-23T10:48:15;11.20;99.90
5806;DHT22;2929;50.810;8.342;2023-03-23T10:50:46;11.20;99.90
5806;DHT22;2929;50.810;8.342;2023-03-23T10:53:16;11.20;99.90
5806;DHT22;2929;50.810;8.342;2023-03-23T10:55:44;11.20;99.90
5806;DHT22;2929;50.810;8.342;2023-03-23T10:58:23;11.20;99.90
5806;DHT22;2929;50.810;8.342;2023-03-23T11:00:50;11.20;99.90
5806;DHT22;2929;50.810;8.342;2023-03-23T11:03:25;11.10;99.90
5806;DHT22;2929;50.810;8.342;2023-03-23T11:05:57;11.10;99.90
5806;DHT22;2929;50.810;8.342;2023-03-23T11:08:26;11.10;99.90
5806;DHT22;2929;50.810;8.342;2023-03-23T11:10:56;11.10;99.90
5806;DHT22;2929;50.810;8.342;2023-03-23T11:13:30;11.10;99.90
5806;DHT22;2929;50.810;8.342;2023-03-23T11:15:58;11.10;99.90
5806;DHT22;2929;50.810;8.342;2023-03-23T11:18:27;11.10;99.90
5806;DHT22;2929;50.810;8.342;2023-03-23T11:21:02;11.10;99.90
5806;DHT22;2929;50.810;8.342;2023-03-23T11:23:32;11.20;99.90
5806;DHT22;2929;50.810;8.342;2023-03-23T11:26:11;11.20;99.90
5806;DHT22;2929;50.810;8.342;2023-03-23T11:28:45;11.20;99.90
5806;DHT22;2929;50.810;8.342;2023-03-23T11:31:16;11.20;99.90
5806;DHT22;2929;50.810;8.342;2023-03-23T11:33:52;11.20;99.90
5806;DHT22;2929;50.810;8.342;2023-03-23T11:36:20;11.20;99.90
5806;DHT22;2929;50.810;8.342;2023-03-23T11:38:53;11.20;99.90
5806;DHT22;2929;50.810;8.342;2023-03-23T11:41:31;11.30;99.90
5806;DHT22;2929;50.810;8.342;2023-03-23T11:44:08;11.30;99.90
5806;DHT22;2929;50.810;8.342;2023-03-23T11:46:42;11.30;99.90
5806;DHT22;2929;50.810;8.342;2023-03-23T11:49:18;11.40;99.90
5806;DHT22;2929;50.810;8.342;2023-03-23T11:51:49;11.40;99.90
5806;DHT22;2929;50.810;8.342;2023-03-23T11:54:24;11.40;99.90
5806;DHT22;2929;50.810;8.342;2023-03-23T11:56:54;11.50;99.90
5806;DHT22;2929;50.810;8.342;2023-03-23T11:59:29;11.50;99.90
5806;DHT22;2929;50.810;8.342;2023-03-23T12:02:03;11.60;99.90
5806;DHT22;2929;50.810;8.342;2023-03-23T12:04:38;11.70;99.90
5806;DHT22;2929;50.810;8.342;2023-03-23T12:07:19;11.80;99.90
5806;DHT22;2929;50.810;8.342;2023-03-23T12:09:57;12.00;99.90
5806;DHT22;2929;50.810;8.342;2023-03-23T12:12:32;12.00;99.90
5806;DHT22;2929;50.810;8.342;2023-03-23T12:15:07;11.90;99.90
5806;DHT22;2929;50.810;8.342;2023-03-23T12:17:45;11.80;99.90
5806;DHT22;2929;50.810;8.342;2023-03-23T12:20:23;11.80;99.90
5806;DHT22;2929;50.810;8.342;2023-03-23T12:23:00;11.80;99.90
5806;DHT22;2929;50.810;8.342;2023-03-23T12:25:49;11.80;99.90
5806;DHT22;2929;50.810;8.342;2023-03-23T12:28:27;11.80;99.90
5806;DHT22;2929;50.810;8.342;2023-03-23T12:31:03;11.90;99.90
5806;DHT22;2929;50.810;8.342;2023-03-23T12:33:42;12.00;99.90
5806;DHT22;2929;50.810;8.342;2023-03-23T12:36:22;11.90;99.90
5806;DHT22;2929;50.810;8.342;2023-03-23T12:41:49;11.90;99.90
5806;DHT22;2929;50.810;8.342;2023-03-23T12:44:23;11.90;99.90
5806;DHT22;2929;50.810;8.342;2023-03-23T12:47:05;12.00;99.90
5806;DHT22;2929;50.810;8.342;2023-03-23T12:49:37;12.00;99.90
5806;DHT22;2929;50.810;8.342;2023-03-23T12:52:12;12.10;99.90
5806;DHT22;2929;50.810;8.342;2023-03-23T12:54:45;12.10;99.90
5806;DHT22;2929;50.810;8.342;2023-03-23T12:57:21;12.10;99.90
5806;DHT22;2929;50.810;8.342;2023-03-23T12:59:53;12.10;99.90
5806;DHT22;2929;50.810;8.342;2023-03-23T13:02:25;12.10;99.90
5806;DHT22;2929;50.810;8.342;2023-03-23T13:04:59;12.10;99.90
5806;DHT22;2929;50.810;8.342;2023-03-23T13:07:32;12.30;99.90
5806;DHT22;2929;50.810;8.342;2023-03-23T13:10:04;12.40;99.90
5806;DHT22;2929;50.810;8.342;2023-03-23T13:12:33;12.40;99.90
5806;DHT22;2929;50.810;8.342;2023-03-23T13:15:15;12.30;99.90
5806;DHT22;2929;50.810;8.342;2023-03-23T13:17:51;12.30;99.90
5806;DHT22;2929;50.810;8.342;2023-03-23T13:20:39;12.30;99.90
5806;DHT22;2929;50.810;8.342;2023-03-23T13:23:14;12.30;99.90
5806;DHT22;2929;50.810;8.342;2023-03-23T13:25:52;12.40;99.90
5806;DHT22;2929;50.810;8.342;2023-03-23T13:28:24;12.50;99.90
5806;DHT22;2929;50.810;8.342;2023-03-23T13:30:59;12.50;99.90
5806;DHT22;2929;50.810;8.342;2023-03-23T13:33:32;12.60;99.90
5806;DHT22;2929;50.810;8.342;2023-03-23T13:36:05;12.60;99.90
5806;DHT22;2929;50.810;8.342;2023-03-23T13:38:34;12.60;99.90
5806;DHT22;2929;50.810;8.342;2023-03-23T13:41:07;12.60;99.90
5806;DHT22;2929;50.810;8.342;2023-03-23T13:43:37;12.50;99.90
5806;DHT22;2929;50.810;8.342;2023-03-23T13:46:12;12.60;99.90
5806;DHT22;2929;50.810;8.342;2023-03-23T13:48:43;12.50;99.90
5806;DHT22;2929;50.810;8.342;2023-03-23T13:51:31;12.60;99.90
5806;DHT22;2929;50.810;8.342;2023-03-23T13:54:13;12.60;99.90
5806;DHT22;2929;50.810;8.342;2023-03-23T13:56:42;12.60;99.90
5806;DHT22;2929;50.810;8.342;2023-03-23T13:59:14;12.70;99.90
5806;DHT22;2929;50.810;8.342;2023-03-23T14:01:42;12.80;99.90
5806;DHT22;2929;50.810;8.342;2023-03-23T14:04:15;12.80;99.90
5806;DHT22;2929;50.810;8.342;2023-03-23T14:06:45;12.70;99.90
5806;DHT22;2929;50.810;8.342;2023-03-23T14:09:22;12.70;99.90
5806;DHT22;2929;50.810;8.342;2023-03-23T14:11:55;12.70;99.90
5806;DHT22;2929;50.810;8.342;2023-03-23T14:14:26;12.60;99.90
5806;DHT22;2929;50.810;8.342;2023-03-23T14:17:05;12.60;99.90
5806;DHT22;2929;50.810;8.342;2023-03-23T14:19:38;12.50;99.90
5806;DHT22;2929;50.810;8.342;2023-03-23T14:22:17;12.60;99.90
5806;DHT22;2929;50.810;8.342;2023-03-23T14:24:45;12.60;99.90
5806;DHT22;2929;50.810;8.342;2023-03-23T14:27:15;12.60;99.90
5806;DHT22;2929;50.810;8.342;2023-03-23T14:29:43;12.60;99.90
5806;DHT22;2929;50.810;8.342;2023-03-23T14:32:15;12.50;99.90
5806;DHT22;2929;50.810;8.342;2023-03-23T14:34:47;12.50;99.90
5806;DHT22;2929;50.810;8.342;2023-03-23T14:37:15;12.50;99.90
5806;DHT22;2929;50.810;8.342;2023-03-23T14:39:45;12.60;99.90
5806;DHT22;2929;50.810;8.342;2023-03-23T14:42:16;12.60;99.90
5806;DHT22;2929;50.810;8.342;2023-03-23T14:44:46;12.60;99.90
5806;DHT22;2929;50.810;8.342;2023-03-23T14:47:18;12.60;99.90
5806;DHT22;2929;50.810;8.342;2023-03-23T14:49:54;12.60;99.90
5806;DHT22;2929;50.810;8.342;2023-03-23T14:52:24;12.60;99.90
5806;DHT22;2929;50.810;8.342;2023-03-23T14:54:51;12.70;99.90
5806;DHT22;2929;50.810;8.342;2023-03-23T14:57:26;12.70;99.90
5806;DHT22;2929;50.810;8.342;2023-03-23T14:59:54;12.80;99.90
5806;DHT22;2929;50.810;8.342;2023-03-23T15:02:24;12.80;99.90
5806;DHT22;2929;50.810;8.342;2023-03-23T15:04:56;12.80;99.90
5806;DHT22;2929;50.810;8.342;2023-03-23T15:07:30;12.80;99.90
5806;DHT22;2929;50.810;8.342;2023-03-23T15:09:58;12.80;99.90
5806;DHT22;2929;50.810;8.342;2023-03-23T15:12:28;12.80;99.90
5806;DHT22;2929;50.810;8.342;2023-03-23T15:14:57;12.80;99.90
5806;DHT22;2929;50.810;8.342;2023-03-23T15:17:27;12.80;99.90
5806;DHT22;2929;50.810;8.342;2023-03-23T15:19:57;12.80;99.90
5806;DHT22;2929;50.810;8.342;2023-03-23T15:22:26;12.80;99.90
5806;DHT22;2929;50.810;8.342;2023-03-23T15:25:03;12.80;99.90
5806;DHT22;2929;50.810;8.342;2023-03-23T15:27:33;12.80;99.90
5806;DHT22;2929;50.810;8.342;2023-03-23T15:30:15;12.80;99.90
5806;DHT22;2929;50.810;8.342;2023-03-23T15:32:44;12.80;99.90
5806;DHT22;2929;50.810;8.342;2023-03-23T15:35:16;13.00;99.90
5806;DHT22;2929;50.810;8.342;2023-03-23T15:37:47;13.00;99.90
5806;DHT22;2929;50.810;8.342;2023-03-23T15:40:17;13.00;99.90
5806;DHT22;2929;50.810;8.342;2023-03-23T15:42:45;12.90;99.90
5806;DHT22;2929;50.810;8.342;2023-03-23T15:45:24;13.00;99.90
5806;DHT22;2929;50.810;8.342;2023-03-23T15:47:52;12.90;99.90
5806;DHT22;2929;50.810;8.342;2023-03-23T15:50:33;13.00;99.90
5806;DHT22;2929;50.810;8.342;2023-03-23T15:53:08;13.00;99.90
5806;DHT22;2929;50.810;8.342;2023-03-23T15:55:39;13.00;99.90
5806;DHT22;2929;50.810;8.342;2023-03-23T15:58:10;13.30;99.90
5806;DHT22;2929;50.810;8.342;2023-03-23T16:00:38;13.70;99.90
5806;DHT22;2929;50.810;8.342;2023-03-23T16:03:08;13.80;99.90
5806;DHT22;2929;50.810;8.342;2023-03-23T16:05:38;13.50;99.90
5806;DHT22;2929;50.810;8.342;2023-03-23T16:08:08;13.30;99.90
5806;DHT22;2929;50.810;8.342;2023-03-23T16:10:36;13.20;99.90
5806;DHT22;2929;50.810;8.342;2023-03-23T16:13:03;13.00;99.90
5806;DHT22;2929;50.810;8.342;2023-03-23T16:15:31;13.00;99.90
5806;DHT22;2929;50.810;8.342;2023-03-23T16:17:58;13.00;99.90
5806;DHT22;2929;50.810;8.342;2023-03-23T16:20:28;12.90;99.90
5806;DHT22;2929;50.810;8.342;2023-03-23T16:22:58;12.90;99.90
5806;DHT22;2929;50.810;8.342;2023-03-23T16:25:25;12.90;99.90
5806;DHT22;2929;50.810;8.342;2023-03-23T16:27:53;12.90;99.90
5806;DHT22;2929;50.810;8.342;2023-03-23T16:30:22;12.80;99.90
5806;DHT22;2929;50.810;8.342;2023-03-23T16:32:49;12.70;99.90
5806;DHT22;2929;50.810;8.342;2023-03-23T16:35:16;12.70;99.90
5806;DHT22;2929;50.810;8.342;2023-03-23T16:37:44;12.70;99.90
5806;DHT22;2929;50.810;8.342;2023-03-23T16:44:00;12.70;99.90
5806;DHT22;2929;50.810;8.342;2023-03-23T16:46:28;12.90;99.90
5806;DHT22;2929;50.810;8.342;2023-03-23T16:48:55;13.00;99.90
5806;DHT22;2929;50.810;8.342;2023-03-23T16:51:23;12.90;99.90
5806;DHT22;2929;50.810;8.342;2023-03-23T16:53:50;12.90;99.90
5806;DHT22;2929;50.810;8.342;2023-03-23T16:56:17;12.80;99.90
5806;DHT22;2929;50.810;8.342;2023-03-23T16:58:44;12.70;99.90